Česky Dansk Deutsch English Español Suomi Français Magyar Italiano Nederlands norsk Polski Português svenska Türkçe

 

Het Weer

Diepholz (Duitsland)

07:20, 18 agosto 2016 (GMT)

NWNNE
WE
SWSSE
Home            
Diepholz Bueckeburg Bremen Hopsten Lemwerder Muenster / Osnabrueck Meppen-Mil Rheine-Bentlage Guetersloh Wunstorf Nordhorn Hannover Twenthe Paderborn / Lippstadt Bergen Jever Celle Wittmundhaven Dortmund / Wickede Fassberg Nordholz Groningen Airport Eelde Hamburg-Finkenwerder

Om een weerknop op uw website of weblog te plaatsen, copieer onderstaande code en plak die in uw pagina. In het eerste vakje staat HTML-code, in het tweede vakje UBB-code.


Add to Google

Details

Wind speed:1 bf, 2 kn, 1.0 m/s, 2.3 miles/h, 3.7 km/h
Wind direction:NNE, 030°
Visibilità totale:Maggiore di 10000 m, 10 km, 32800 ft, 6.2 miles
Clouds:Ein wenig bewölkt at 28000 ft, 8534 m
Temperature:16°C, 61°F
Temperatura di rugiada :12°C, 54°F
Pressione atmosferica:1011 hPa, 758.3 mmHg, 29.85 inHg, 0.998 atm
Umidità relativa:77.1 %
METAR:ETND 180720Z 03002KT 9999 FEW280 16/12 Q1011 BLU+

Snelkoppelingen

Actuele weersinformatie van de hele wereld. Voeg locaties toe met het plus (+) symbool. Deze snelkoppelingen kunnen worden toegevoegd aan Google.

Lid van de Technetium groep

website free tracking
StatCounter NetStat W3C Validator

02-10-2022 05:44:25
astro.technetium.be money.technetium.be phote.technetium.be tafeltennistafel.technetium.be www.ligfiets.net